Time;durP1;ratioP1;P1;durP2;ratioP2;P2;SDS_P1;SDS_P2;PMS_P1;PMS_P2;Temp;Humidity;BMP_temperature;BMP_pressure;BME280_temperature;BME280_humidity;BME280_pressure;Samples;Min_cycle;Max_cycle;Signal;HPM_P1;HPM_P2
2021/07/03 00:00:35;;;;;;;59.85;36.22;;;18.60;99.90;;;;;;5030351;28;20108;-78
2021/07/03 00:03:01;;;;;;;60.33;38.92;;;18.50;99.90;;;;;;5031450;28;20057;-79
2021/07/03 00:05:27;;;;;;;61.80;42.05;;;18.50;99.90;;;;;;5028551;28;20033;-81
2021/07/03 00:07:53;;;;;;;73.20;44.30;;;18.50;99.90;;;;;;5030290;28;20371;-79
2021/07/03 00:10:19;;;;;;;61.00;40.53;;;18.60;99.90;;;;;;5025369;28;20531;-79
2021/07/03 00:12:45;;;;;;;65.45;40.00;;;18.60;99.90;;;;;;5028076;28;20033;-80
2021/07/03 00:15:15;;;;;;;62.45;40.20;;;18.50;99.90;;;;;;5030744;28;20048;-80
2021/07/03 00:17:42;;;;;;;60.13;39.53;;;18.50;99.90;;;;;;5026899;28;20507;-80
2021/07/03 00:20:09;;;;;;;56.67;38.53;;;18.50;99.90;;;;;;5028299;28;20481;-81
2021/07/03 00:22:36;;;;;;;51.13;35.22;;;18.50;99.90;;;;;;5027468;28;20039;-81
2021/07/03 00:25:04;;;;;;;44.05;32.97;;;18.60;99.90;;;;;;5029876;28;20551;-79
2021/07/03 00:27:30;;;;;;;54.53;36.53;;;18.50;99.90;;;;;;5029743;28;20056;-81
2021/07/03 00:29:56;;;;;;;57.38;38.00;;;18.60;99.90;;;;;;5030014;28;20048;-81
2021/07/03 00:32:22;;;;;;;56.42;38.28;;;18.50;99.90;;;;;;5028863;28;21258;-79
2021/07/03 00:34:49;;;;;;;65.32;42.03;;;18.50;99.90;;;;;;5024478;28;20029;-80
2021/07/03 00:37:15;;;;;;;58.95;39.60;;;18.40;99.90;;;;;;5027871;28;20037;-81
2021/07/03 00:39:40;;;;;;;63.40;40.35;;;18.40;99.90;;;;;;5029149;28;20022;-81
2021/07/03 00:42:06;;;;;;;67.68;42.85;;;18.30;99.90;;;;;;5030892;28;20049;-81
2021/07/03 00:44:34;;;;;;;64.68;42.60;;;18.30;99.90;;;;;;5029541;28;20030;-79
2021/07/03 00:47:00;;;;;;;66.30;43.08;;;18.30;99.90;;;;;;5029596;28;20025;-81
2021/07/03 00:49:27;;;;;;;68.63;46.15;;;18.30;99.90;;;;;;5026306;28;20030;-81
2021/07/03 00:51:53;;;;;;;63.88;42.17;;;18.30;99.90;;;;;;5025584;28;20029;-81
2021/07/03 00:54:21;;;;;;;67.60;43.85;;;18.20;99.90;;;;;;5029446;28;20055;-81
2021/07/03 00:56:48;;;;;;;62.15;40.63;;;18.20;99.90;;;;;;5029478;28;20258;-80
2021/07/03 00:59:15;;;;;;;61.13;39.50;;;18.20;99.90;;;;;;5029240;28;20033;-81
2021/07/03 01:01:40;;;;;;;99.15;48.75;;;18.10;99.90;;;;;;5021260;28;20071;-81
2021/07/03 01:04:06;;;;;;;69.50;43.90;;;18.00;99.90;;;;;;5027864;28;20108;-81
2021/07/03 01:06:32;;;;;;;63.88;42.08;;;18.10;99.90;;;;;;5028033;28;20022;-81
2021/07/03 01:08:58;;;;;;;66.80;43.70;;;18.10;99.90;;;;;;5030567;28;20462;-79
2021/07/03 01:11:28;;;;;;;69.38;44.38;;;18.00;99.90;;;;;;5026048;28;20021;-78
2021/07/03 01:13:55;;;;;;;54.05;37.40;;;17.90;99.90;;;;;;5025908;28;20078;-78
2021/07/03 01:16:21;;;;;;;61.95;37.65;;;17.80;99.90;;;;;;5027895;28;20025;-80
2021/07/03 01:18:47;;;;;;;57.78;37.47;;;17.80;99.90;;;;;;5023014;28;20029;-79
2021/07/03 01:21:15;;;;;;;57.10;36.00;;;17.80;99.90;;;;;;5025244;28;20110;-80
2021/07/03 01:23:41;;;;;;;62.70;36.83;;;17.80;99.90;;;;;;5030348;28;20367;-80
2021/07/03 01:26:07;;;;;;;61.97;42.85;;;17.90;99.90;;;;;;5018415;28;20026;-80
2021/07/03 01:28:33;;;;;;;62.30;37.78;;;17.80;99.90;;;;;;5021429;28;20037;-76
2021/07/03 01:30:59;;;;;;;60.45;38.30;;;17.80;99.90;;;;;;5027383;28;20052;-78
2021/07/03 01:33:24;;;;;;;51.13;31.92;;;17.80;99.90;;;;;;5028588;28;20080;-80
2021/07/03 01:35:50;;;;;;;51.20;31.83;;;17.80;99.90;;;;;;5027890;28;20053;-78
2021/07/03 01:38:24;;;;;;;50.60;31.38;;;17.80;99.90;;;;;;5029536;28;20032;-75
2021/07/03 01:40:50;;;;;;;51.30;33.20;;;17.80;99.90;;;;;;5023503;28;20046;-80
2021/07/03 01:43:20;;;;;;;47.03;33.03;;;17.80;99.90;;;;;;5028359;28;20053;-80
2021/07/03 01:45:46;;;;;;;59.65;35.75;;;17.80;99.90;;;;;;5025640;28;20732;-75
2021/07/03 01:48:12;;;;;;;54.80;36.08;;;17.80;99.90;;;;;;5023977;28;20484;-80
2021/07/03 01:50:38;;;;;;;55.03;35.97;;;17.80;99.90;;;;;;5029686;28;20029;-78
2021/07/03 01:53:03;;;;;;;63.90;39.65;;;17.80;99.90;;;;;;5022214;28;20084;-80
2021/07/03 01:55:29;;;;;;;91.22;46.33;;;17.80;99.90;;;;;;5025921;28;20029;-80
2021/07/03 01:57:54;;;;;;;70.18;42.08;;;17.80;99.90;;;;;;5030131;28;20116;-80
2021/07/03 02:00:21;;;;;;;70.85;44.70;;;17.80;99.90;;;;;;5027840;28;20048;-80
2021/07/03 02:02:47;;;;;;;80.13;46.65;;;17.70;99.90;;;;;;5033755;28;20049;-80
2021/07/03 02:05:13;;;;;;;68.00;44.15;;;17.70;99.90;;;;;;5031118;28;20022;-79
2021/07/03 02:07:39;;;;;;;65.93;42.92;;;17.70;99.90;;;;;;5025125;28;20026;-81
2021/07/03 02:10:05;;;;;;;69.00;44.15;;;17.70;99.90;;;;;;5031152;28;20032;-80
2021/07/03 02:12:30;;;;;;;68.97;43.42;;;17.70;99.90;;;;;;5034034;28;20025;-80
2021/07/03 02:14:56;;;;;;;70.40;43.50;;;17.70;99.90;;;;;;5031322;28;20017;-81
2021/07/03 02:17:22;;;;;;;67.13;40.85;;;17.70;99.90;;;;;;5033061;28;20033;-80
2021/07/03 02:19:47;;;;;;;63.95;40.05;;;17.60;99.90;;;;;;5031018;28;20533;-79
2021/07/03 02:22:13;;;;;;;64.38;41.22;;;17.50;99.90;;;;;;5033020;28;20037;-81
2021/07/03 02:24:39;;;;;;;71.30;43.00;;;17.50;99.90;;;;;;5030761;28;20374;-80
2021/07/03 02:27:04;;;;;;;65.40;41.35;;;17.50;99.90;;;;;;5031526;28;20103;-80
2021/07/03 02:29:30;;;;;;;70.20;42.67;;;17.50;99.90;;;;;;5030246;28;20033;-79
2021/07/03 02:31:56;;;;;;;72.07;43.83;;;17.40;99.90;;;;;;5032927;28;20030;-81
2021/07/03 02:34:21;;;;;;;71.57;44.35;;;17.40;99.90;;;;;;5025391;28;20033;-80
2021/07/03 02:36:47;;;;;;;81.15;47.97;;;17.40;99.90;;;;;;5028155;28;20044;-81
2021/07/03 02:39:12;;;;;;;75.85;45.47;;;17.40;99.90;;;;;;5030208;28;20060;-81
2021/07/03 02:41:38;;;;;;;83.97;50.13;;;17.40;99.90;;;;;;5030876;28;20009;-80
2021/07/03 02:44:04;;;;;;;76.95;46.45;;;17.40;99.90;;;;;;5033302;28;20029;-81
2021/07/03 02:46:30;;;;;;;74.38;44.25;;;17.40;99.90;;;;;;5026091;28;20071;-78
2021/07/03 02:48:55;;;;;;;81.53;46.95;;;17.40;99.90;;;;;;5027653;28;20423;-81
2021/07/03 02:51:21;;;;;;;75.57;46.20;;;17.40;99.90;;;;;;5028045;28;20037;-80
2021/07/03 02:53:47;;;;;;;72.60;47.60;;;17.30;99.90;;;;;;5030754;28;20089;-76
2021/07/03 02:56:12;;;;;;;80.75;47.78;;;17.30;99.90;;;;;;5033385;28;20025;-76
2021/07/03 02:58:38;;;;;;;73.82;45.38;;;17.40;99.90;;;;;;5030361;28;20124;-78
2021/07/03 03:01:03;;;;;;;77.55;45.38;;;17.40;99.90;;;;;;5031583;28;20694;-75
2021/07/03 03:03:30;;;;;;;75.10;45.85;;;17.40;99.90;;;;;;5030671;28;20382;-81
2021/07/03 03:05:56;;;;;;;84.38;46.60;;;17.40;99.90;;;;;;5026669;28;20604;-81
2021/07/03 03:08:22;;;;;;;81.07;48.13;;;17.40;99.90;;;;;;5029022;28;20100;-80
2021/07/03 03:10:48;;;;;;;80.38;47.42;;;17.40;99.90;;;;;;5026767;28;20031;-81
2021/07/03 03:13:13;;;;;;;77.90;47.42;;;17.40;99.90;;;;;;5028067;28;20567;-79
2021/07/03 03:15:39;;;;;;;81.35;49.80;;;17.40;99.90;;;;;;5026877;28;20022;-81
2021/07/03 03:18:05;;;;;;;73.97;44.25;;;17.40;99.90;;;;;;5030161;28;20489;-80
2021/07/03 03:20:30;;;;;;;83.65;46.65;;;17.40;99.90;;;;;;5031429;28;20018;-79
2021/07/03 03:22:56;;;;;;;74.53;45.38;;;17.40;99.90;;;;;;5027876;28;20482;-77
2021/07/03 03:25:22;;;;;;;75.95;44.75;;;17.30;99.90;;;;;;5030228;28;20017;-80
2021/07/03 03:27:49;;;;;;;76.72;44.33;;;17.30;99.90;;;;;;5026653;28;20398;-81
2021/07/03 03:30:15;;;;;;;77.40;46.80;;;17.40;99.90;;;;;;5027454;28;20056;-81
2021/07/03 03:32:41;;;;;;;77.32;44.38;;;17.40;99.90;;;;;;5030674;28;20029;-80
2021/07/03 03:35:07;;;;;;;78.68;45.80;;;17.30;99.90;;;;;;5027938;28;20039;-79
2021/07/03 03:37:33;;;;;;;75.93;45.22;;;17.20;99.90;;;;;;5028971;28;20026;-79
2021/07/03 03:39:58;;;;;;;79.97;48.45;;;17.20;99.90;;;;;;5023846;28;20374;-80
2021/07/03 03:42:24;;;;;;;78.10;47.38;;;17.30;99.90;;;;;;5027815;28;20761;-80
2021/07/03 03:44:50;;;;;;;78.03;45.15;;;17.30;99.90;;;;;;5028122;28;20025;-81
2021/07/03 03:47:15;;;;;;;82.32;47.17;;;17.20;99.90;;;;;;5028280;28;20436;-80
2021/07/03 03:49:41;;;;;;;82.75;48.03;;;17.10;99.90;;;;;;5027986;28;20025;-80
2021/07/03 03:52:09;;;;;;;88.18;51.60;;;17.20;99.90;;;;;;5024550;28;20033;-79
2021/07/03 03:54:35;;;;;;;75.95;48.22;;;17.10;99.90;;;;;;5030404;28;20030;-81
2021/07/03 03:59:44;;;;;;;69.65;43.88;;;17.20;99.90;;;;;;5027878;28;20037;-80
2021/07/03 04:02:10;;;;;;;74.93;43.63;;;17.20;99.90;;;;;;5024567;28;20029;-80
2021/07/03 04:04:36;;;;;;;82.43;48.60;;;17.30;99.90;;;;;;5030187;28;20025;-79
2021/07/03 04:07:01;;;;;;;82.03;48.88;;;17.30;99.90;;;;;;5028325;28;20109;-75
2021/07/03 04:09:27;;;;;;;80.28;47.47;;;17.20;99.90;;;;;;5029226;28;20018;-80
2021/07/03 04:11:55;;;;;;;129.82;58.55;;;17.20;99.90;;;;;;5031635;28;20527;-78
2021/07/03 04:14:21;;;;;;;74.88;47.83;;;17.20;99.90;;;;;;5023454;28;20534;-78
2021/07/03 04:16:47;;;;;;;79.88;48.45;;;17.10;99.90;;;;;;5029867;28;20018;-73
2021/07/03 04:19:12;;;;;;;77.93;47.63;;;17.10;99.90;;;;;;5036809;28;20470;-79
2021/07/03 04:21:38;;;;;;;77.93;47.28;;;17.10;99.90;;;;;;5029737;28;20091;-77
2021/07/03 04:24:04;;;;;;;70.90;44.63;;;17.10;99.90;;;;;;5026689;28;20083;-80
2021/07/03 04:26:30;;;;;;;72.45;47.47;;;17.20;99.90;;;;;;5029272;28;20031;-80
2021/07/03 04:28:55;;;;;;;72.78;46.10;;;17.20;99.90;;;;;;5031897;28;20084;-77
2021/07/03 04:31:21;;;;;;;74.65;47.00;;;17.30;99.90;;;;;;5029278;28;20033;-80
2021/07/03 04:33:46;;;;;;;76.57;44.88;;;17.30;99.90;;;;;;5031214;28;20358;-79
2021/07/03 04:36:12;;;;;;;72.93;44.25;;;17.30;99.90;;;;;;5025058;28;20068;-80
2021/07/03 04:38:38;;;;;;;82.85;46.45;;;17.30;99.90;;;;;;5030935;28;20033;-79
2021/07/03 04:41:03;;;;;;;84.32;47.67;;;17.30;99.90;;;;;;5025362;28;20033;-73
2021/07/03 04:43:29;;;;;;;75.93;46.47;;;17.30;99.90;;;;;;5028951;28;20101;-77
2021/07/03 04:45:55;;;;;;;85.70;47.58;;;17.30;99.90;;;;;;5030945;28;20152;-81
2021/07/03 04:48:20;;;;;;;74.57;45.85;;;17.30;99.90;;;;;;5028081;28;20026;-80
2021/07/03 04:50:46;;;;;;;76.47;45.60;;;17.30;99.90;;;;;;5031180;28;20030;-73
2021/07/03 04:53:12;;;;;;;73.28;45.70;;;17.30;99.90;;;;;;5032238;28;20547;-80
2021/07/03 04:55:37;;;;;;;75.57;46.10;;;17.30;99.90;;;;;;5025730;28;20029;-80
2021/07/03 04:58:03;;;;;;;75.22;44.00;;;17.30;99.90;;;;;;5028062;28;20029;-78
2021/07/03 05:00:29;;;;;;;73.05;43.17;;;17.20;99.90;;;;;;5032611;28;20064;-79
2021/07/03 05:02:54;;;;;;;69.97;41.40;;;17.20;99.90;;;;;;5027018;28;20061;-80
2021/07/03 05:05:20;;;;;;;69.28;42.22;;;17.10;99.90;;;;;;5026503;28;20025;-81
2021/07/03 05:07:46;;;;;;;76.38;43.78;;;17.20;99.90;;;;;;5029064;28;20469;-81
2021/07/03 05:10:12;;;;;;;73.80;41.50;;;17.20;99.90;;;;;;5032150;28;20026;-81
2021/07/03 05:12:37;;;;;;;72.85;41.92;;;17.20;99.90;;;;;;5019779;28;20528;-80
2021/07/03 05:15:04;;;;;;;52.00;34.25;;;17.20;99.90;;;;;;5029325;28;20029;-81
2021/07/03 05:17:29;;;;;;;69.70;40.65;;;17.20;99.90;;;;;;5030752;28;20030;-80
2021/07/03 05:19:55;;;;;;;71.30;40.35;;;17.30;99.90;;;;;;5031989;28;20022;-81
2021/07/03 05:22:21;;;;;;;65.03;41.60;;;17.20;99.90;;;;;;5026421;28;20076;-79
2021/07/03 05:24:47;;;;;;;78.03;46.92;;;17.30;99.90;;;;;;5025501;28;20053;-81
2021/07/03 05:27:13;;;;;;;74.85;43.38;;;17.40;99.90;;;;;;5030688;28;20025;-80
2021/07/03 05:29:38;;;;;;;61.05;40.33;;;17.40;99.90;;;;;;5030555;28;20025;-80
2021/07/03 05:32:04;;;;;;;75.28;45.13;;;17.40;99.90;;;;;;5039190;28;20401;-81
2021/07/03 05:34:30;;;;;;;75.57;43.33;;;17.40;99.90;;;;;;5030568;28;20037;-81
2021/07/03 05:36:57;;;;;;;63.40;43.50;;;17.40;99.90;;;;;;5036710;28;20378;-81
2021/07/03 05:39:22;;;;;;;73.45;45.58;;;17.40;99.90;;;;;;5035549;28;20048;-81
2021/07/03 05:41:49;;;;;;;76.00;47.97;;;17.50;99.90;;;;;;5029236;28;20032;-81
2021/07/03 05:44:15;;;;;;;65.72;42.25;;;17.50;99.90;;;;;;5037208;28;20044;-81
2021/07/03 05:46:41;;;;;;;67.13;42.10;;;17.60;99.90;;;;;;5035743;28;20999;-81
2021/07/03 05:49:07;;;;;;;93.18;50.53;;;17.60;99.90;;;;;;5034358;28;20559;-78
2021/07/03 05:51:33;;;;;;;82.32;48.63;;;17.60;99.90;;;;;;5037342;28;20029;-76
2021/07/03 05:53:59;;;;;;;75.65;45.88;;;17.60;99.90;;;;;;5036620;28;20037;-77
2021/07/03 05:56:26;;;;;;;72.78;44.55;;;17.60;99.90;;;;;;5037532;28;20536;-78
2021/07/03 05:58:52;;;;;;;72.28;43.85;;;17.70;99.90;;;;;;5031265;28;20032;-78
2021/07/03 06:01:18;;;;;;;65.43;40.88;;;17.70;99.90;;;;;;5033479;28;20033;-78
2021/07/03 06:03:43;;;;;;;75.00;45.03;;;17.80;99.90;;;;;;5036610;28;20026;-79
2021/07/03 06:06:10;;;;;;;65.68;39.80;;;17.80;99.90;;;;;;5036299;28;20104;-79
2021/07/03 06:08:36;;;;;;;65.57;39.58;;;17.80;99.90;;;;;;5033689;28;20108;-77
2021/07/03 06:11:02;;;;;;;59.28;37.58;;;17.90;99.90;;;;;;5032701;28;20105;-77
2021/07/03 06:13:27;;;;;;;69.90;41.17;;;18.00;99.90;;;;;;5038418;28;20374;-77
2021/07/03 06:15:54;;;;;;;60.88;38.95;;;18.00;99.90;;;;;;5038180;28;20389;-74
2021/07/03 06:18:20;;;;;;;53.40;34.15;;;18.10;99.90;;;;;;5041404;28;20034;-75
2021/07/03 06:20:46;;;;;;;71.30;42.85;;;18.10;99.90;;;;;;5032681;28;20589;-77
2021/07/03 06:23:11;;;;;;;54.80;35.95;;;18.10;99.90;;;;;;5034261;28;20042;-77
2021/07/03 06:25:37;;;;;;;57.28;37.38;;;18.10;99.90;;;;;;5037026;28;20130;-75
2021/07/03 06:28:03;;;;;;;41.70;31.10;;;18.20;99.90;;;;;;5033728;28;20029;-76
2021/07/03 06:30:29;;;;;;;46.78;33.50;;;18.20;99.90;;;;;;5034182;28;20381;-74
2021/07/03 06:32:54;;;;;;;47.05;32.20;;;18.20;99.90;;;;;;5037809;28;20099;-76
2021/07/03 06:35:20;;;;;;;41.78;30.98;;;18.30;99.90;;;;;;5036077;28;20029;-77
2021/07/03 06:37:45;;;;;;;46.75;31.67;;;18.40;99.90;;;;;;5035695;28;20542;-75
2021/07/03 06:40:11;;;;;;;45.53;30.60;;;18.40;99.90;;;;;;5031005;28;20041;-78
2021/07/03 06:42:37;;;;;;;36.25;25.52;;;18.50;99.90;;;;;;5034325;28;20132;-75
2021/07/03 06:45:04;;;;;;;38.80;28.02;;;18.60;99.90;;;;;;5035147;28;20112;-76
2021/07/03 06:47:31;;;;;;;37.30;28.38;;;18.80;99.90;;;;;;5035182;28;20030;-78
2021/07/03 06:49:57;;;;;;;33.97;24.50;;;18.90;99.90;;;;;;5033056;28;20048;-78
2021/07/03 06:52:22;;;;;;;40.05;27.13;;;19.10;99.90;;;;;;5033056;28;20021;-78
2021/07/03 06:54:48;;;;;;;35.90;26.27;;;19.20;99.90;;;;;;5032802;28;20504;-77
2021/07/03 06:57:14;;;;;;;33.88;24.73;;;19.30;99.90;;;;;;5032554;28;20017;-72
2021/07/03 06:59:40;;;;;;;35.53;26.10;;;19.50;99.90;;;;;;5025309;28;20079;-73
2021/07/03 07:02:06;;;;;;;33.28;23.20;;;19.60;99.90;;;;;;5033524;28;20021;-73
2021/07/03 07:04:31;;;;;;;34.13;23.83;;;19.70;99.90;;;;;;5027430;28;20383;-75
2021/07/03 07:06:57;;;;;;;28.65;20.92;;;19.90;99.90;;;;;;5031548;28;20022;-72
2021/07/03 07:09:24;;;;;;;34.97;24.23;;;20.00;99.90;;;;;;5032710;28;20079;-73
2021/07/03 07:11:51;;;;;;;32.42;23.05;;;20.10;99.90;;;;;;5033236;28;20390;-74
2021/07/03 07:14:17;;;;;;;31.95;24.00;;;20.20;99.90;;;;;;5032554;28;20033;-73
2021/07/03 07:16:43;;;;;;;30.77;22.98;;;20.30;99.90;;;;;;5031565;28;20028;-72
2021/07/03 07:19:09;;;;;;;33.33;23.80;;;20.40;99.90;;;;;;5028932;28;20029;-72
2021/07/03 07:21:35;;;;;;;28.90;22.27;;;20.50;99.90;;;;;;5028818;28;20600;-72
2021/07/03 07:24:02;;;;;;;28.42;20.58;;;20.60;99.90;;;;;;5033652;28;20477;-72
2021/07/03 07:26:28;;;;;;;27.70;20.83;;;20.80;99.90;;;;;;5027692;28;20022;-72
2021/07/03 07:28:53;;;;;;;27.02;21.17;;;20.90;99.90;;;;;;5027635;28;20022;-73
2021/07/03 07:31:20;;;;;;;26.42;20.52;;;21.10;99.90;;;;;;5031168;28;20032;-78
2021/07/03 07:33:46;;;;;;;26.70;20.90;;;21.10;99.90;;;;;;5028337;28;20611;-78
2021/07/03 07:36:12;;;;;;;30.13;22.40;;;21.20;99.90;;;;;;5029741;28;20044;-73
2021/07/03 07:38:38;;;;;;;29.65;20.80;;;21.30;99.90;;;;;;5029440;28;20056;-74
2021/07/03 07:41:04;;;;;;;36.42;21.05;;;21.40;99.90;;;;;;5029445;28;20021;-73
2021/07/03 07:43:30;;;;;;;28.83;21.15;;;21.60;99.90;;;;;;5031837;28;20033;-73
2021/07/03 07:45:56;;;;;;;24.13;19.15;;;21.70;99.90;;;;;;5033144;28;20028;-72
2021/07/03 07:48:23;;;;;;;26.08;19.98;;;21.90;99.90;;;;;;5029611;28;20072;-72
2021/07/03 07:50:49;;;;;;;26.02;17.73;;;22.00;99.90;;;;;;5026403;28;20021;-73
2021/07/03 07:53:15;;;;;;;25.50;19.45;;;21.90;99.90;;;;;;5033039;28;20057;-73
2021/07/03 07:55:40;;;;;;;22.40;18.48;;;22.00;99.90;;;;;;5031557;28;20067;-73
2021/07/03 07:58:06;;;;;;;25.38;17.67;;;22.00;99.90;;;;;;5033857;28;20076;-73
2021/07/03 08:00:31;;;;;;;20.50;16.80;;;22.00;99.90;;;;;;5028541;28;20075;-72
2021/07/03 08:02:57;;;;;;;25.83;16.65;;;22.00;99.90;;;;;;5030405;28;20462;-73
2021/07/03 08:05:24;;;;;;;21.63;14.65;;;22.10;99.90;;;;;;5029202;28;20045;-73
2021/07/03 08:07:50;;;;;;;22.92;17.13;;;22.10;99.90;;;;;;5029862;28;20025;-72
2021/07/03 08:10:16;;;;;;;22.00;14.73;;;22.20;99.90;;;;;;5026920;28;20384;-73
2021/07/03 08:12:42;;;;;;;19.77;14.55;;;22.30;99.90;;;;;;5031925;28;20040;-73
2021/07/03 08:15:09;;;;;;;20.58;16.35;;;22.30;99.90;;;;;;5029837;28;20075;-73
2021/07/03 08:17:34;;;;;;;21.38;15.27;;;22.50;99.90;;;;;;5030616;28;20025;-72
2021/07/03 08:20:00;;;;;;;25.02;15.85;;;22.70;99.90;;;;;;5025587;28;20032;-72
2021/07/03 08:22:26;;;;;;;19.70;16.38;;;23.00;99.90;;;;;;5031193;28;20032;-76
2021/07/03 08:24:51;;;;;;;21.52;15.50;;;23.10;99.90;;;;;;5031581;28;20078;-73
2021/07/03 08:27:17;;;;;;;20.55;14.98;;;23.20;99.90;;;;;;5027519;28;20156;-74
2021/07/03 08:29:43;;;;;;;16.17;12.20;;;23.20;99.90;;;;;;5030655;28;20470;-74
2021/07/03 08:32:08;;;;;;;14.40;12.05;;;23.30;99.90;;;;;;5030846;28;20038;-73
2021/07/03 08:34:34;;;;;;;13.18;11.32;;;23.20;99.90;;;;;;5029859;28;20041;-74
2021/07/03 08:37:00;;;;;;;12.00;10.38;;;23.30;99.90;;;;;;5030193;28;20033;-76
2021/07/03 08:39:25;;;;;;;13.05;10.75;;;23.40;99.90;;;;;;5028132;28;20040;-74
2021/07/03 08:41:51;;;;;;;13.10;9.50;;;23.50;99.90;;;;;;5030624;28;20033;-73
2021/07/03 08:44:17;;;;;;;15.52;10.20;;;23.50;99.90;;;;;;5028590;28;20056;-73
2021/07/03 08:46:46;;;;;;;10.30;8.68;;;23.50;99.90;;;;;;5025810;28;20029;-75
2021/07/03 08:49:16;;;;;;;12.52;9.23;;;23.50;99.90;;;;;;5030366;28;20022;-73
2021/07/03 08:51:45;;;;;;;10.68;8.45;;;23.60;99.90;;;;;;5024617;28;20057;-75
2021/07/03 08:54:12;;;;;;;10.52;8.68;;;23.50;99.90;;;;;;5029129;28;20041;-74
2021/07/03 08:56:38;;;;;;;8.98;8.05;;;23.50;99.90;;;;;;5033043;28;20501;-73
2021/07/03 08:59:24;;;;;;;9.25;8.13;;;23.60;99.90;;;;;;5029390;28;20122;-74
2021/07/03 09:01:52;;;;;;;13.48;8.70;;;23.50;99.90;;;;;;5026010;28;20042;-74
2021/07/03 09:04:17;;;;;;;11.30;8.43;;;23.50;99.90;;;;;;5030702;28;20029;-72
2021/07/03 09:06:43;;;;;;;10.93;8.60;;;23.60;99.90;;;;;;5025732;28;20087;-73
2021/07/03 09:09:09;;;;;;;11.05;9.25;;;23.50;99.90;;;;;;5030832;28;20092;-75
2021/07/03 09:11:35;;;;;;;9.82;8.38;;;23.40;99.90;;;;;;5030304;28;20091;-73
2021/07/03 09:14:05;;;;;;;10.55;7.93;;;23.40;99.90;;;;;;5028392;28;20034;-74
2021/07/03 09:16:34;;;;;;;12.55;8.27;;;23.40;99.90;;;;;;5029238;28;20075;-73
2021/07/03 09:19:01;;;;;;;14.10;8.70;;;23.30;99.90;;;;;;5026336;28;20029;-74
2021/07/03 09:21:27;;;;;;;9.90;8.93;;;23.30;99.90;;;;;;5029216;28;20116;-74
2021/07/03 09:23:53;;;;;;;9.80;8.35;;;23.30;99.90;;;;;;5030409;28;20056;-73
2021/07/03 09:26:18;;;;;;;9.23;8.30;;;23.20;99.90;;;;;;5029930;28;20470;-73
2021/07/03 09:28:46;;;;;;;10.10;9.00;;;23.20;99.90;;;;;;5029058;28;20026;-74
2021/07/03 09:31:17;;;;;;;12.77;8.88;;;23.10;99.90;;;;;;5025431;28;20030;-73
2021/07/03 09:33:51;;;;;;;8.32;7.20;;;23.10;99.90;;;;;;5029356;28;20087;-73
2021/07/03 09:36:27;;;;;;;10.85;8.63;;;23.10;99.90;;;;;;5024242;28;20116;-74
2021/07/03 09:38:55;;;;;;;11.77;9.18;;;23.00;99.90;;;;;;5026356;28;20366;-74
2021/07/03 09:41:23;;;;;;;8.95;8.05;;;23.00;99.90;;;;;;5032532;28;20052;-73
2021/07/03 09:43:51;;;;;;;11.60;8.95;;;23.00;99.90;;;;;;5032088;28;20030;-73
2021/07/03 09:46:26;;;;;;;12.32;9.77;;;23.00;99.90;;;;;;5029274;28;20025;-74
2021/07/03 09:48:57;;;;;;;10.82;9.23;;;23.10;99.90;;;;;;5030144;28;20034;-73
2021/07/03 09:51:31;;;;;;;11.57;9.63;;;23.10;99.90;;;;;;5025961;28;20021;-74
2021/07/03 09:53:58;;;;;;;9.85;8.77;;;23.20;99.90;;;;;;5026106;28;20033;-74
2021/07/03 09:56:25;;;;;;;14.45;9.95;;;23.20;99.90;;;;;;5031750;28;20012;-74
2021/07/03 09:58:50;;;;;;;10.63;8.23;;;23.20;99.90;;;;;;5028958;28;20087;-74
2021/07/03 10:01:16;;;;;;;8.52;7.72;;;23.20;99.90;;;;;;5030009;28;20029;-73
2021/07/03 10:03:43;;;;;;;11.85;9.25;;;23.30;99.90;;;;;;5007478;28;20029;-74
2021/07/03 10:06:13;;;;;;;11.93;9.05;;;23.30;99.90;;;;;;5023871;28;20037;-74
2021/07/03 10:08:43;;;;;;;11.32;8.30;;;23.30;99.90;;;;;;5026119;28;20087;-73
2021/07/03 10:11:10;;;;;;;13.23;8.75;;;23.30;99.90;;;;;;5028663;28;20042;-74
2021/07/03 10:13:39;;;;;;;11.93;8.75;;;23.30;99.90;;;;;;5025894;28;20034;-73
2021/07/03 10:16:07;;;;;;;11.20;9.73;;;23.30;99.90;;;;;;5029010;28;20112;-73
2021/07/03 10:18:34;;;;;;;10.48;8.27;;;23.40;99.90;;;;;;5030462;28;20024;-73
2021/07/03 10:21:17;;;;;;;10.70;9.55;;;23.40;99.90;;;;;;5029261;28;20552;-73
2021/07/03 10:23:44;;;;;;;13.02;9.25;;;23.40;99.90;;;;;;5024236;28;20033;-74
2021/07/03 10:26:11;;;;;;;11.65;8.88;;;23.50;99.90;;;;;;5031911;28;20033;-73
2021/07/03 10:28:40;;;;;;;11.15;9.57;;;23.50;99.90;;;;;;5031507;28;20021;-73
2021/07/03 10:31:14;;;;;;;11.05;10.05;;;23.60;99.90;;;;;;5033973;28;20029;-73
2021/07/03 10:33:44;;;;;;;13.27;8.90;;;23.60;99.90;;;;;;5031674;28;20805;-73
2021/07/03 10:36:20;;;;;;;12.95;8.88;;;23.60;99.90;;;;;;5034177;28;20029;-73
2021/07/03 10:38:46;;;;;;;10.63;9.35;;;23.70;99.90;;;;;;5032702;28;20466;-74
2021/07/03 10:41:15;;;;;;;11.30;10.20;;;23.70;99.90;;;;;;5032495;28;20022;-73
2021/07/03 10:43:49;;;;;;;13.10;9.65;;;23.70;99.90;;;;;;5031096;28;20060;-73
2021/07/03 10:46:32;;;;;;;10.55;9.40;;;23.80;99.90;;;;;;5028836;28;20630;-74
2021/07/03 10:49:07;;;;;;;16.08;10.27;;;23.80;99.90;;;;;;5031082;28;20115;-73
2021/07/03 10:51:41;;;;;;;11.57;9.57;;;23.80;99.90;;;;;;5029171;28;20043;-74
2021/07/03 10:54:14;;;;;;;12.95;10.00;;;23.80;99.90;;;;;;5031171;28;20598;-73
2021/07/03 10:56:51;;;;;;;9.90;8.88;;;23.80;99.90;;;;;;5028674;28;20037;-74
2021/07/03 10:59:23;;;;;;;10.43;9.32;;;23.80;99.90;;;;;;5027934;28;20297;-75
2021/07/03 11:01:51;;;;;;;12.90;8.95;;;23.90;99.90;;;;;;5027826;28;20029;-73
2021/07/03 11:04:19;;;;;;;12.30;9.93;;;24.00;99.90;;;;;;5028703;28;20029;-74
2021/07/03 11:06:52;;;;;;;13.55;9.85;;;24.10;99.90;;;;;;5031327;28;20026;-74
2021/07/03 11:09:31;;;;;;;14.25;9.60;;;24.20;99.90;;;;;;5031747;28;20026;-73
2021/07/03 11:12:09;;;;;;;14.77;10.32;;;24.20;99.90;;;;;;5047546;28;20092;-74
2021/07/03 11:14:38;;;;;;;11.85;10.52;;;24.30;99.90;;;;;;5022673;28;20041;-73
2021/07/03 11:17:04;;;;;;;14.02;10.32;;;24.20;99.90;;;;;;5030022;28;20537;-73
2021/07/03 11:19:30;;;;;;;12.27;10.93;;;24.20;99.90;;;;;;5030469;28;20155;-74
2021/07/03 11:22:07;;;;;;;11.13;10.02;;;24.40;99.90;;;;;;5029855;28;20021;-73
2021/07/03 11:24:46;;;;;;;13.27;10.77;;;24.40;99.90;;;;;;5029128;28;20382;-73
2021/07/03 11:27:24;;;;;;;11.27;10.10;;;24.50;99.90;;;;;;5031174;28;20060;-74
2021/07/03 11:29:50;;;;;;;14.07;10.52;;;24.50;99.90;;;;;;5028688;28;20022;-73
2021/07/03 11:32:15;;;;;;;12.57;10.43;;;24.40;99.90;;;;;;5029059;28;20147;-74
2021/07/03 11:34:56;;;;;;;12.00;9.07;;;24.40;99.90;;;;;;5030248;28;20374;-74
2021/07/03 11:37:33;;;;;;;9.75;8.55;;;24.40;99.90;;;;;;5021863;28;20075;-73
2021/07/03 11:40:04;;;;;;;12.07;9.13;;;24.40;99.90;;;;;;5043816;28;20572;-73
2021/07/03 11:42:32;;;;;;;9.85;8.88;;;24.30;99.90;;;;;;5030533;28;20029;-73
2021/07/03 11:44:59;;;;;;;10.10;8.13;;;24.40;99.90;;;;;;5029156;28;20021;-73
2021/07/03 11:47:37;;;;;;;9.65;8.40;;;24.40;99.90;;;;;;5030707;28;20030;-74
2021/07/03 11:50:06;;;;;;;8.32;7.63;;;24.50;99.90;;;;;;5030452;28;20044;-73
2021/07/03 11:52:46;;;;;;;7.97;7.18;;;24.40;99.90;;;;;;5029707;28;20060;-73
2021/07/03 11:55:14;;;;;;;8.88;8.02;;;24.40;99.90;;;;;;5030524;28;20037;-73
2021/07/03 11:57:42;;;;;;;8.95;7.85;;;24.40;99.90;;;;;;5030949;28;20028;-73
2021/07/03 12:00:12;;;;;;;10.73;8.35;;;24.40;99.90;;;;;;5030045;28;20065;-73
2021/07/03 12:02:38;;;;;;;11.27;8.07;;;24.30;99.90;;;;;;5028046;28;20040;-73
2021/07/03 12:05:05;;;;;;;11.50;8.52;;;24.20;99.90;;;;;;5028015;28;20494;-73
2021/07/03 12:07:31;;;;;;;11.57;7.95;;;24.10;99.90;;;;;;5027784;28;20477;-73
2021/07/03 12:10:01;;;;;;;8.70;7.85;;;24.00;99.90;;;;;;5028710;28;20032;-73
2021/07/03 12:12:27;;;;;;;12.15;7.93;;;23.90;99.90;;;;;;5029543;28;20087;-72
2021/07/03 12:15:00;;;;;;;9.00;7.88;;;23.90;99.90;;;;;;5030738;28;20025;-72
2021/07/03 12:17:26;;;;;;;11.05;7.60;;;24.00;99.90;;;;;;5029383;28;20458;-73
2021/07/03 12:20:11;;;;;;;11.65;8.13;;;24.00;99.90;;;;;;5025240;28;20120;-73
2021/07/03 12:22:38;;;;;;;8.75;7.82;;;24.10;99.90;;;;;;5026027;28;20411;-73
2021/07/03 12:25:15;;;;;;;9.98;8.40;;;24.20;99.90;;;;;;5028749;28;20363;-72
2021/07/03 12:27:41;;;;;;;9.75;8.55;;;24.00;99.90;;;;;;5028025;28;20038;-72
2021/07/03 12:30:08;;;;;;;10.93;9.50;;;24.00;99.90;;;;;;5030087;28;20021;-73
2021/07/03 12:32:34;;;;;;;9.05;8.13;;;23.90;99.90;;;;;;5027213;28;20064;-73